sensor_id;sensor_type;location;lat;lon;timestamp;pressure;altitude;pressure_sealevel;temperature
19102;BMP280;9683;49.028;12.064;2022-11-15T00:01:06;97237.28;;;7.07
19102;BMP280;9683;49.028;12.064;2022-11-15T00:03:34;97239.53;;;7.10
19102;BMP280;9683;49.028;12.064;2022-11-15T00:06:02;97238.31;;;7.06
19102;BMP280;9683;49.028;12.064;2022-11-15T00:08:29;97230.75;;;7.03
19102;BMP280;9683;49.028;12.064;2022-11-15T00:10:56;97233.63;;;7.08
19102;BMP280;9683;49.028;12.064;2022-11-15T00:13:23;97228.16;;;7.10
19102;BMP280;9683;49.028;12.064;2022-11-15T00:15:49;97233.03;;;7.13
19102;BMP280;9683;49.028;12.064;2022-11-15T00:18:16;97237.13;;;7.15
19102;BMP280;9683;49.028;12.064;2022-11-15T00:20:44;97224.91;;;7.14
19102;BMP280;9683;49.028;12.064;2022-11-15T00:23:11;97236.69;;;7.12
19102;BMP280;9683;49.028;12.064;2022-11-15T00:25:38;97234.25;;;7.10
19102;BMP280;9683;49.028;12.064;2022-11-15T00:28:04;97232.44;;;7.11
19102;BMP280;9683;49.028;12.064;2022-11-15T00:30:31;97229.97;;;7.09
19102;BMP280;9683;49.028;12.064;2022-11-15T00:33:01;97230.56;;;7.11
19102;BMP280;9683;49.028;12.064;2022-11-15T00:35:30;97223.25;;;7.07
19102;BMP280;9683;49.028;12.064;2022-11-15T00:37:58;97221.63;;;7.06
19102;BMP280;9683;49.028;12.064;2022-11-15T00:40:26;97216.94;;;7.01
19102;BMP280;9683;49.028;12.064;2022-11-15T00:42:52;97220.59;;;7.00
19102;BMP280;9683;49.028;12.064;2022-11-15T00:45:19;97213.66;;;6.99
19102;BMP280;9683;49.028;12.064;2022-11-15T00:47:45;97215.91;;;6.96
19102;BMP280;9683;49.028;12.064;2022-11-15T00:50:12;97209.78;;;6.95
19102;BMP280;9683;49.028;12.064;2022-11-15T00:52:39;97214.25;;;6.95
19102;BMP280;9683;49.028;12.064;2022-11-15T00:55:08;97210.22;;;6.92
19102;BMP280;9683;49.028;12.064;2022-11-15T00:57:35;97207.34;;;6.87
19102;BMP280;9683;49.028;12.064;2022-11-15T01:00:03;97205.09;;;6.84
19102;BMP280;9683;49.028;12.064;2022-11-15T01:02:29;97200.63;;;6.84
19102;BMP280;9683;49.028;12.064;2022-11-15T01:04:56;97201.66;;;6.83
19102;BMP280;9683;49.028;12.064;2022-11-15T01:07:23;97200.81;;;6.76
19102;BMP280;9683;49.028;12.064;2022-11-15T01:09:49;97200.41;;;6.73
19102;BMP280;9683;49.028;12.064;2022-11-15T01:12:17;97196.97;;;6.72
19102;BMP280;9683;49.028;12.064;2022-11-15T01:14:44;97194.31;;;6.72
19102;BMP280;9683;49.028;12.064;2022-11-15T01:17:10;97196.75;;;6.74
19102;BMP280;9683;49.028;12.064;2022-11-15T01:19:37;97191.66;;;6.72
19102;BMP280;9683;49.028;12.064;2022-11-15T01:22:04;97189.84;;;6.73
19102;BMP280;9683;49.028;12.064;2022-11-15T01:24:30;97188.03;;;6.73
19102;BMP280;9683;49.028;12.064;2022-11-15T01:26:57;97188.41;;;6.70
19102;BMP280;9683;49.028;12.064;2022-11-15T01:29:25;97189.41;;;6.69
19102;BMP280;9683;49.028;12.064;2022-11-15T01:31:52;97188.41;;;6.64
19102;BMP280;9683;49.028;12.064;2022-11-15T01:34:19;97178.84;;;6.63
19102;BMP280;9683;49.028;12.064;2022-11-15T01:36:46;97182.88;;;6.65
19102;BMP280;9683;49.028;12.064;2022-11-15T01:39:13;97177.00;;;6.63
19102;BMP280;9683;49.028;12.064;2022-11-15T01:41:40;97163.78;;;6.63
19102;BMP280;9683;49.028;12.064;2022-11-15T01:44:36;97163.97;;;6.62
19102;BMP280;9683;49.028;12.064;2022-11-15T01:47:08;97163.38;;;6.60
19102;BMP280;9683;49.028;12.064;2022-11-15T01:49:38;97160.94;;;6.58
19102;BMP280;9683;49.028;12.064;2022-11-15T01:52:09;97161.75;;;6.59
19102;BMP280;9683;49.028;12.064;2022-11-15T01:54:36;97155.47;;;6.60
19102;BMP280;9683;49.028;12.064;2022-11-15T01:57:06;97154.44;;;6.61
19102;BMP280;9683;49.028;12.064;2022-11-15T01:59:35;97151.00;;;6.60
19102;BMP280;9683;49.028;12.064;2022-11-15T02:02:03;97149.13;;;6.54
19102;BMP280;9683;49.028;12.064;2022-11-15T02:04:32;97151.13;;;6.45
19102;BMP280;9683;49.028;12.064;2022-11-15T02:06:59;97136.28;;;6.38
19102;BMP280;9683;49.028;12.064;2022-11-15T02:09:28;97134.66;;;6.37
19102;BMP280;9683;49.028;12.064;2022-11-15T02:11:55;97132.44;;;6.40
19102;BMP280;9683;49.028;12.064;2022-11-15T02:14:25;97135.28;;;6.45
19102;BMP280;9683;49.028;12.064;2022-11-15T02:16:59;97129.41;;;6.50
19102;BMP280;9683;49.028;12.064;2022-11-15T02:19:45;97117.63;;;6.53
19102;BMP280;9683;49.028;12.064;2022-11-15T02:22:30;97130.22;;;6.51
19102;BMP280;9683;49.028;12.064;2022-11-15T02:25:20;97125.34;;;6.48
19102;BMP280;9683;49.028;12.064;2022-11-15T02:28:10;97124.13;;;6.43
19102;BMP280;9683;49.028;12.064;2022-11-15T02:30:45;97127.34;;;6.39
19102;BMP280;9683;49.028;12.064;2022-11-15T02:33:25;97116.78;;;6.39
19102;BMP280;9683;49.028;12.064;2022-11-15T02:35:58;97119.81;;;6.36
19102;BMP280;9683;49.028;12.064;2022-11-15T02:38:31;97113.13;;;6.33
19102;BMP280;9683;49.028;12.064;2022-11-15T02:41:02;97109.44;;;6.28
19102;BMP280;9683;49.028;12.064;2022-11-15T02:43:33;97106.41;;;6.31
19102;BMP280;9683;49.028;12.064;2022-11-15T02:46:24;97101.72;;;6.33
19102;BMP280;9683;49.028;12.064;2022-11-15T02:49:13;97103.56;;;6.32
19102;BMP280;9683;49.028;12.064;2022-11-15T02:51:43;97100.91;;;6.32
19102;BMP280;9683;49.028;12.064;2022-11-15T02:54:12;97099.28;;;6.25
19102;BMP280;9683;49.028;12.064;2022-11-15T02:56:38;97089.50;;;6.19
19102;BMP280;9683;49.028;12.064;2022-11-15T02:59:29;97086.84;;;6.19
19102;BMP280;9683;49.028;12.064;2022-11-15T03:02:11;97091.94;;;6.20
19102;BMP280;9683;49.028;12.064;2022-11-15T03:04:43;97091.13;;;6.20
19102;BMP280;9683;49.028;12.064;2022-11-15T03:07:14;97093.59;;;6.21
19102;BMP280;9683;49.028;12.064;2022-11-15T03:09:48;97091.53;;;6.23
19102;BMP280;9683;49.028;12.064;2022-11-15T03:12:34;97091.97;;;6.27
19102;BMP280;9683;49.028;12.064;2022-11-15T03:15:06;97098.88;;;6.28
19102;BMP280;9683;49.028;12.064;2022-11-15T03:17:40;97103.16;;;6.29
19102;BMP280;9683;49.028;12.064;2022-11-15T03:20:11;97100.31;;;6.30
19102;BMP280;9683;49.028;12.064;2022-11-15T03:22:43;97100.31;;;6.30
19102;BMP280;9683;49.028;12.064;2022-11-15T03:25:13;97100.31;;;6.30
19102;BMP280;9683;49.028;12.064;2022-11-15T03:27:46;97104.56;;;6.31
19102;BMP280;9683;49.028;12.064;2022-11-15T03:30:14;97092.38;;;6.30
19102;BMP280;9683;49.028;12.064;2022-11-15T03:32:46;97098.06;;;6.27
19102;BMP280;9683;49.028;12.064;2022-11-15T03:35:17;97102.53;;;6.27
19102;BMP280;9683;49.028;12.064;2022-11-15T03:37:49;97096.22;;;6.28
19102;BMP280;9683;49.028;12.064;2022-11-15T03:40:17;97083.84;;;6.28
19102;BMP280;9683;49.028;12.064;2022-11-15T03:42:51;97088.53;;;6.33
19102;BMP280;9683;49.028;12.064;2022-11-15T03:45:22;97090.16;;;6.34
19102;BMP280;9683;49.028;12.064;2022-11-15T03:47:55;97088.34;;;6.34
19102;BMP280;9683;49.028;12.064;2022-11-15T03:50:25;97085.88;;;6.33
19102;BMP280;9683;49.028;12.064;2022-11-15T03:52:54;97078.78;;;6.33
19102;BMP280;9683;49.028;12.064;2022-11-15T03:55:21;97076.13;;;6.33
19102;BMP280;9683;49.028;12.064;2022-11-15T03:57:51;97082.03;;;6.35
19102;BMP280;9683;49.028;12.064;2022-11-15T04:00:19;97077.56;;;6.36
19102;BMP280;9683;49.028;12.064;2022-11-15T04:02:46;97079.59;;;6.34
19102;BMP280;9683;49.028;12.064;2022-11-15T04:05:14;97073.91;;;6.30
19102;BMP280;9683;49.028;12.064;2022-11-15T04:07:40;97078.34;;;6.23
19102;BMP280;9683;49.028;12.064;2022-11-15T04:10:08;97071.63;;;6.21
19102;BMP280;9683;49.028;12.064;2022-11-15T04:12:38;97066.34;;;6.21
19102;BMP280;9683;49.028;12.064;2022-11-15T04:15:07;97056.63;;;6.21
19102;BMP280;9683;49.028;12.064;2022-11-15T04:17:37;97056.44;;;6.23
19102;BMP280;9683;49.028;12.064;2022-11-15T04:20:06;97068.41;;;6.25
19102;BMP280;9683;49.028;12.064;2022-11-15T04:22:53;97056.00;;;6.26
19102;BMP280;9683;49.028;12.064;2022-11-15T04:25:38;97048.28;;;6.24
19102;BMP280;9683;49.028;12.064;2022-11-15T04:28:04;97045.66;;;6.24
19102;BMP280;9683;49.028;12.064;2022-11-15T04:30:31;97044.81;;;6.24
19102;BMP280;9683;49.028;12.064;2022-11-15T04:32:58;97046.88;;;6.22
19102;BMP280;9683;49.028;12.064;2022-11-15T04:35:24;97052.75;;;6.17
19102;BMP280;9683;49.028;12.064;2022-11-15T04:37:53;97048.66;;;6.15
19102;BMP280;9683;49.028;12.064;2022-11-15T04:40:18;97051.13;;;6.10
19102;BMP280;9683;49.028;12.064;2022-11-15T04:42:45;97059.81;;;6.04
19102;BMP280;9683;49.028;12.064;2022-11-15T04:45:12;97058.41;;;6.01
19102;BMP280;9683;49.028;12.064;2022-11-15T04:47:38;97060.41;;;5.99
19102;BMP280;9683;49.028;12.064;2022-11-15T04:50:06;97056.72;;;5.93
19102;BMP280;9683;49.028;12.064;2022-11-15T04:52:32;97044.91;;;5.83
19102;BMP280;9683;49.028;12.064;2022-11-15T04:55:00;97046.91;;;5.81
19102;BMP280;9683;49.028;12.064;2022-11-15T04:57:27;97047.72;;;5.81
19102;BMP280;9683;49.028;12.064;2022-11-15T04:59:53;97043.91;;;5.84
19102;BMP280;9683;49.028;12.064;2022-11-15T05:02:20;97051.00;;;5.83
19102;BMP280;9683;49.028;12.064;2022-11-15T05:04:46;97049.56;;;5.81
19102;BMP280;9683;49.028;12.064;2022-11-15T05:07:12;97046.91;;;5.81
19102;BMP280;9683;49.028;12.064;2022-11-15T05:09:39;97046.53;;;5.84
19102;BMP280;9683;49.028;12.064;2022-11-15T05:12:07;97040.69;;;5.88
19102;BMP280;9683;49.028;12.064;2022-11-15T05:14:33;97039.66;;;5.89
19102;BMP280;9683;49.028;12.064;2022-11-15T05:17:00;97032.16;;;5.86
19102;BMP280;9683;49.028;12.064;2022-11-15T05:19:26;97031.28;;;5.86
19102;BMP280;9683;49.028;12.064;2022-11-15T05:21:53;97014.66;;;5.85
19102;BMP280;9683;49.028;12.064;2022-11-15T05:24:20;97016.31;;;5.86
19102;BMP280;9683;49.028;12.064;2022-11-15T05:26:46;97016.72;;;5.90
19102;BMP280;9683;49.028;12.064;2022-11-15T05:29:14;97014.91;;;5.90
19102;BMP280;9683;49.028;12.064;2022-11-15T05:31:41;97013.28;;;5.89
19102;BMP280;9683;49.028;12.064;2022-11-15T05:34:08;97014.50;;;5.87
19102;BMP280;9683;49.028;12.064;2022-11-15T05:36:37;97016.94;;;5.88
19102;BMP280;9683;49.028;12.064;2022-11-15T05:39:05;97017.75;;;5.89
19102;BMP280;9683;49.028;12.064;2022-11-15T05:41:34;97009.63;;;5.90
19102;BMP280;9683;49.028;12.064;2022-11-15T05:44:02;97012.88;;;5.92
19102;BMP280;9683;49.028;12.064;2022-11-15T05:46:33;97010.03;;;5.94
19102;BMP280;9683;49.028;12.064;2022-11-15T05:49:01;97021.22;;;5.96
19102;BMP280;9683;49.028;12.064;2022-11-15T05:51:28;97019.78;;;5.93
19102;BMP280;9683;49.028;12.064;2022-11-15T05:53:56;97022.97;;;5.82
19102;BMP280;9683;49.028;12.064;2022-11-15T05:56:24;97019.69;;;5.74
19102;BMP280;9683;49.028;12.064;2022-11-15T05:58:52;97020.09;;;5.71
19102;BMP280;9683;49.028;12.064;2022-11-15T06:01:19;97015.81;;;5.70
19102;BMP280;9683;49.028;12.064;2022-11-15T06:03:47;97005.69;;;5.73
19102;BMP280;9683;49.028;12.064;2022-11-15T06:06:14;97001.25;;;5.80
19102;BMP280;9683;49.028;12.064;2022-11-15T06:08:40;97007.56;;;5.86
19102;BMP280;9683;49.028;12.064;2022-11-15T06:11:07;97002.53;;;5.91
19102;BMP280;9683;49.028;12.064;2022-11-15T06:13:34;97001.72;;;5.90
19102;BMP280;9683;49.028;12.064;2022-11-15T06:16:01;97003.31;;;5.85
19102;BMP280;9683;49.028;12.064;2022-11-15T06:18:27;97005.72;;;5.80
19102;BMP280;9683;49.028;12.064;2022-11-15T06:20:58;97011.41;;;5.83
19102;BMP280;9683;49.028;12.064;2022-11-15T06:23:24;97005.94;;;5.85
19102;BMP280;9683;49.028;12.064;2022-11-15T06:25:51;97013.28;;;5.89
19102;BMP280;9683;49.028;12.064;2022-11-15T06:28:18;97004.56;;;5.89
19102;BMP280;9683;49.028;12.064;2022-11-15T06:30:45;97002.72;;;5.89
19102;BMP280;9683;49.028;12.064;2022-11-15T06:33:11;96994.75;;;5.83
19102;BMP280;9683;49.028;12.064;2022-11-15T06:35:38;96988.66;;;5.82
19102;BMP280;9683;49.028;12.064;2022-11-15T06:38:07;96991.31;;;5.82
19102;BMP280;9683;49.028;12.064;2022-11-15T06:40:35;96985.44;;;5.80
19102;BMP280;9683;49.028;12.064;2022-11-15T06:43:02;96991.09;;;5.77
19102;BMP280;9683;49.028;12.064;2022-11-15T06:45:29;96993.13;;;5.75
19102;BMP280;9683;49.028;12.064;2022-11-15T06:47:57;96995.75;;;5.75
19102;BMP280;9683;49.028;12.064;2022-11-15T06:50:23;96991.50;;;5.74
19102;BMP280;9683;49.028;12.064;2022-11-15T06:52:50;97001.84;;;5.76
19102;BMP280;9683;49.028;12.064;2022-11-15T06:55:18;96998.63;;;5.80
19102;BMP280;9683;49.028;12.064;2022-11-15T06:57:48;97012.41;;;5.82
19102;BMP280;9683;49.028;12.064;2022-11-15T07:00:16;97019.94;;;5.85
19102;BMP280;9683;49.028;12.064;2022-11-15T07:02:43;97031.53;;;5.84
19102;BMP280;9683;49.028;12.064;2022-11-15T07:05:10;97026.84;;;5.80
19102;BMP280;9683;49.028;12.064;2022-11-15T07:07:36;97021.09;;;5.70
19102;BMP280;9683;49.028;12.064;2022-11-15T07:10:04;97019.66;;;5.61
19102;BMP280;9683;49.028;12.064;2022-11-15T07:12:32;97026.09;;;5.51
19102;BMP280;9683;49.028;12.064;2022-11-15T07:14:59;97020.03;;;5.51
19102;BMP280;9683;49.028;12.064;2022-11-15T07:17:26;97026.13;;;5.58
19102;BMP280;9683;49.028;12.064;2022-11-15T07:19:52;97016.63;;;5.64
19102;BMP280;9683;49.028;12.064;2022-11-15T07:22:19;97014.19;;;5.69
19102;BMP280;9683;49.028;12.064;2022-11-15T07:24:45;97016.25;;;5.73
19102;BMP280;9683;49.028;12.064;2022-11-15T07:27:12;97010.38;;;5.78
19102;BMP280;9683;49.028;12.064;2022-11-15T07:29:40;97009.59;;;5.84
19102;BMP280;9683;49.028;12.064;2022-11-15T07:32:07;96999.63;;;5.86
19102;BMP280;9683;49.028;12.064;2022-11-15T07:34:33;96991.97;;;5.91
19102;BMP280;9683;49.028;12.064;2022-11-15T07:37:00;97008.03;;;5.96
19102;BMP280;9683;49.028;12.064;2022-11-15T07:39:27;97002.97;;;6.01
19102;BMP280;9683;49.028;12.064;2022-11-15T07:41:53;97005.00;;;6.06
19102;BMP280;9683;49.028;12.064;2022-11-15T07:44:42;97011.91;;;6.13
19102;BMP280;9683;49.028;12.064;2022-11-15T07:47:08;97005.81;;;6.19
19102;BMP280;9683;49.028;12.064;2022-11-15T07:49:35;97004.00;;;6.26
19102;BMP280;9683;49.028;12.064;2022-11-15T07:52:01;96998.72;;;6.33
19102;BMP280;9683;49.028;12.064;2022-11-15T07:54:28;96994.47;;;6.38
19102;BMP280;9683;49.028;12.064;2022-11-15T07:56:55;96989.41;;;6.43
19102;BMP280;9683;49.028;12.064;2022-11-15T07:59:21;96984.50;;;6.47
19102;BMP280;9683;49.028;12.064;2022-11-15T08:01:49;96986.94;;;6.55
19102;BMP280;9683;49.028;12.064;2022-11-15T08:04:16;96982.69;;;6.61
19102;BMP280;9683;49.028;12.064;2022-11-15T08:06:43;96983.47;;;6.68
19102;BMP280;9683;49.028;12.064;2022-11-15T08:09:09;96981.84;;;6.73
19102;BMP280;9683;49.028;12.064;2022-11-15T08:11:36;96986.50;;;6.78
19102;BMP280;9683;49.028;12.064;2022-11-15T08:14:03;96990.97;;;6.84
19102;BMP280;9683;49.028;12.064;2022-11-15T08:16:29;96981.41;;;6.89
19102;BMP280;9683;49.028;12.064;2022-11-15T08:18:58;96980.81;;;6.94
19102;BMP280;9683;49.028;12.064;2022-11-15T08:21:25;96979.56;;;6.97
19102;BMP280;9683;49.028;12.064;2022-11-15T08:23:52;96989.34;;;7.03
19102;BMP280;9683;49.028;12.064;2022-11-15T08:26:18;96982.81;;;7.05
19102;BMP280;9683;49.028;12.064;2022-11-15T08:28:45;96979.72;;;7.08
19102;BMP280;9683;49.028;12.064;2022-11-15T08:31:13;96976.28;;;7.14
19102;BMP280;9683;49.028;12.064;2022-11-15T08:33:40;96979.13;;;7.19
19102;BMP280;9683;49.028;12.064;2022-11-15T08:36:13;96981.09;;;7.24
19102;BMP280;9683;49.028;12.064;2022-11-15T08:38:40;96981.53;;;7.27
19102;BMP280;9683;49.028;12.064;2022-11-15T08:41:07;96979.84;;;7.33
19102;BMP280;9683;49.028;12.064;2022-11-15T08:43:33;96978.41;;;7.37
19102;BMP280;9683;49.028;12.064;2022-11-15T08:46:00;96975.16;;;7.42
19102;BMP280;9683;49.028;12.064;2022-11-15T08:48:26;96972.69;;;7.47
19102;BMP280;9683;49.028;12.064;2022-11-15T08:50:53;96969.41;;;7.51
19102;BMP280;9683;49.028;12.064;2022-11-15T08:53:22;96969.78;;;7.55
19102;BMP280;9683;49.028;12.064;2022-11-15T08:55:50;96964.88;;;7.58
19102;BMP280;9683;49.028;12.064;2022-11-15T08:58:16;96969.56;;;7.63
19102;BMP280;9683;49.028;12.064;2022-11-15T09:00:43;96969.16;;;7.66
19102;BMP280;9683;49.028;12.064;2022-11-15T09:03:10;96957.13;;;7.70
19102;BMP280;9683;49.028;12.064;2022-11-15T09:05:37;96946.69;;;7.75
19102;BMP280;9683;49.028;12.064;2022-11-15T09:08:04;96955.03;;;7.78
19102;BMP280;9683;49.028;12.064;2022-11-15T09:10:32;96944.81;;;7.82
19102;BMP280;9683;49.028;12.064;2022-11-15T09:12:59;96944.97;;;7.87
19102;BMP280;9683;49.028;12.064;2022-11-15T09:15:25;96941.69;;;7.92
19102;BMP280;9683;49.028;12.064;2022-11-15T09:17:52;96935.75;;;7.96
19102;BMP280;9683;49.028;12.064;2022-11-15T09:20:19;96932.47;;;8.01
19102;BMP280;9683;49.028;12.064;2022-11-15T09:22:45;96929.16;;;8.05
19102;BMP280;9683;49.028;12.064;2022-11-15T09:25:12;96921.19;;;8.12
19102;BMP280;9683;49.028;12.064;2022-11-15T09:27:40;96924.59;;;8.19
19102;BMP280;9683;49.028;12.064;2022-11-15T09:30:07;96921.50;;;8.22
19102;BMP280;9683;49.028;12.064;2022-11-15T09:32:34;96921.88;;;8.25
19102;BMP280;9683;49.028;12.064;2022-11-15T09:35:01;96919.44;;;8.31
19102;BMP280;9683;49.028;12.064;2022-11-15T09:37:28;96915.56;;;8.33
19102;BMP280;9683;49.028;12.064;2022-11-15T09:39:54;96910.38;;;8.38
19102;BMP280;9683;49.028;12.064;2022-11-15T09:42:29;96919.94;;;8.46
19102;BMP280;9683;49.028;12.064;2022-11-15T09:45:12;96919.84;;;8.52
19102;BMP280;9683;49.028;12.064;2022-11-15T09:47:51;96922.66;;;8.57
19102;BMP280;9683;49.028;12.064;2022-11-15T09:50:36;96911.41;;;8.62
19102;BMP280;9683;49.028;12.064;2022-11-15T09:53:10;96920.31;;;8.67
19102;BMP280;9683;49.028;12.064;2022-11-15T09:55:52;96913.94;;;8.75
19102;BMP280;9683;49.028;12.064;2022-11-15T09:58:25;96908.75;;;8.80
19102;BMP280;9683;49.028;12.064;2022-11-15T10:00:55;96904.41;;;8.86
19102;BMP280;9683;49.028;12.064;2022-11-15T10:03:27;96906.97;;;8.92
19102;BMP280;9683;49.028;12.064;2022-11-15T10:06:00;96909.78;;;8.97
19102;BMP280;9683;49.028;12.064;2022-11-15T10:08:37;96899.13;;;9.04
19102;BMP280;9683;49.028;12.064;2022-11-15T10:11:09;96902.34;;;9.06
19102;BMP280;9683;49.028;12.064;2022-11-15T10:13:39;96892.09;;;9.09
19102;BMP280;9683;49.028;12.064;2022-11-15T10:16:16;96884.28;;;9.14
19102;BMP280;9683;49.028;12.064;2022-11-15T10:18:52;96878.31;;;9.19
19102;BMP280;9683;49.028;12.064;2022-11-15T10:21:28;96865.41;;;9.23
19102;BMP280;9683;49.028;12.064;2022-11-15T10:23:55;96860.69;;;9.25
19102;BMP280;9683;49.028;12.064;2022-11-15T10:26:23;96850.22;;;9.30
19102;BMP280;9683;49.028;12.064;2022-11-15T10:28:50;96851.59;;;9.32
19102;BMP280;9683;49.028;12.064;2022-11-15T10:31:25;96847.25;;;9.38
19102;BMP280;9683;49.028;12.064;2022-11-15T10:34:00;96843.09;;;9.42
19102;BMP280;9683;49.028;12.064;2022-11-15T10:36:32;96837.34;;;9.45
19102;BMP280;9683;49.028;12.064;2022-11-15T10:38:59;96825.22;;;9.49
19102;BMP280;9683;49.028;12.064;2022-11-15T10:41:37;96824.53;;;9.53
19102;BMP280;9683;49.028;12.064;2022-11-15T10:44:24;96814.88;;;9.59
19102;BMP280;9683;49.028;12.064;2022-11-15T10:49:59;96802.06;;;9.68
19102;BMP280;9683;49.028;12.064;2022-11-15T10:52:27;96794.22;;;9.73
19102;BMP280;9683;49.028;12.064;2022-11-15T10:54:57;96799.19;;;9.81
19102;BMP280;9683;49.028;12.064;2022-11-15T10:57:26;96791.13;;;9.87
19102;BMP280;9683;49.028;12.064;2022-11-15T10:59:55;96791.81;;;9.94
19102;BMP280;9683;49.028;12.064;2022-11-15T11:02:28;96785.13;;;10.03
19102;BMP280;9683;49.028;12.064;2022-11-15T11:04:55;96786.63;;;10.11
19102;BMP280;9683;49.028;12.064;2022-11-15T11:07:25;96779.94;;;10.20
19102;BMP280;9683;49.028;12.064;2022-11-15T11:10:00;96768.72;;;10.30
19102;BMP280;9683;49.028;12.064;2022-11-15T11:12:29;96764.69;;;10.39
19102;BMP280;9683;49.028;12.064;2022-11-15T11:14:57;96755.75;;;10.45
19102;BMP280;9683;49.028;12.064;2022-11-15T11:17:32;96757.22;;;10.52
19102;BMP280;9683;49.028;12.064;2022-11-15T11:20:02;96749.94;;;10.60
19102;BMP280;9683;49.028;12.064;2022-11-15T11:22:39;96750.13;;;10.70
19102;BMP280;9683;49.028;12.064;2022-11-15T11:25:19;96757.03;;;10.82
19102;BMP280;9683;49.028;12.064;2022-11-15T11:27:59;96741.03;;;10.94
19102;BMP280;9683;49.028;12.064;2022-11-15T11:30:43;96741.53;;;11.08
19102;BMP280;9683;49.028;12.064;2022-11-15T11:33:16;96729.22;;;11.18
19102;BMP280;9683;49.028;12.064;2022-11-15T11:35:51;96727.78;;;11.27
19102;BMP280;9683;49.028;12.064;2022-11-15T11:38:36;96722.16;;;11.40
19102;BMP280;9683;49.028;12.064;2022-11-15T11:41:34;96714.91;;;11.53
19102;BMP280;9683;49.028;12.064;2022-11-15T11:44:14;96717.25;;;11.66
19102;BMP280;9683;49.028;12.064;2022-11-15T11:46:55;96711.28;;;11.75
19102;BMP280;9683;49.028;12.064;2022-11-15T11:49:26;96711.66;;;11.84
19102;BMP280;9683;49.028;12.064;2022-11-15T11:52:00;96704.38;;;11.96
19102;BMP280;9683;49.028;12.064;2022-11-15T11:54:34;96703.78;;;12.11
19102;BMP280;9683;49.028;12.064;2022-11-15T11:57:07;96702.06;;;12.21
19102;BMP280;9683;49.028;12.064;2022-11-15T11:59:41;96694.19;;;12.31
19102;BMP280;9683;49.028;12.064;2022-11-15T12:02:15;96700.72;;;12.40
19102;BMP280;9683;49.028;12.064;2022-11-15T12:04:46;96683.44;;;12.48
19102;BMP280;9683;49.028;12.064;2022-11-15T12:07:19;96686.50;;;12.57
19102;BMP280;9683;49.028;12.064;2022-11-15T12:09:53;96682.88;;;12.68
19102;BMP280;9683;49.028;12.064;2022-11-15T12:12:27;96671.00;;;12.80
19102;BMP280;9683;49.028;12.064;2022-11-15T12:14:56;96671.91;;;12.91
19102;BMP280;9683;49.028;12.064;2022-11-15T12:17:26;96661.81;;;12.98
19102;BMP280;9683;49.028;12.064;2022-11-15T12:19:57;96664.56;;;13.03
19102;BMP280;9683;49.028;12.064;2022-11-15T12:22:32;96663.78;;;13.08
19102;BMP280;9683;49.028;12.064;2022-11-15T12:25:04;96658.03;;;13.16
19102;BMP280;9683;49.028;12.064;2022-11-15T12:27:36;96652.22;;;13.24
19102;BMP280;9683;49.028;12.064;2022-11-15T12:30:11;96653.09;;;13.35
19102;BMP280;9683;49.028;12.064;2022-11-15T12:32:39;96647.25;;;13.43
19102;BMP280;9683;49.028;12.064;2022-11-15T12:35:24;96638.28;;;13.54
19102;BMP280;9683;49.028;12.064;2022-11-15T12:37:52;96639.13;;;13.64
19102;BMP280;9683;49.028;12.064;2022-11-15T12:40:29;96635.72;;;13.74
19102;BMP280;9683;49.028;12.064;2022-11-15T12:42:59;96638.97;;;13.81
19102;BMP280;9683;49.028;12.064;2022-11-15T12:45:29;96623.25;;;13.90
19102;BMP280;9683;49.028;12.064;2022-11-15T12:51:06;96617.44;;;14.08
19102;BMP280;9683;49.028;12.064;2022-11-15T12:53:34;96616.94;;;14.16
19102;BMP280;9683;49.028;12.064;2022-11-15T12:56:21;96619.41;;;14.28
19102;BMP280;9683;49.028;12.064;2022-11-15T12:58:51;96614.88;;;14.33
19102;BMP280;9683;49.028;12.064;2022-11-15T13:01:54;96613.88;;;14.39
19102;BMP280;9683;49.028;12.064;2022-11-15T13:04:24;96616.00;;;14.42
19102;BMP280;9683;49.028;12.064;2022-11-15T13:06:52;96612.53;;;14.47
19102;BMP280;9683;49.028;12.064;2022-11-15T13:09:51;96611.25;;;14.59
19102;BMP280;9683;49.028;12.064;2022-11-15T13:12:54;96614.22;;;14.68
19102;BMP280;9683;49.028;12.064;2022-11-15T13:15:33;96606.97;;;14.74
19102;BMP280;9683;49.028;12.064;2022-11-15T13:18:35;96608.59;;;14.75
19102;BMP280;9683;49.028;12.064;2022-11-15T13:21:04;96609.13;;;14.82
19102;BMP280;9683;49.028;12.064;2022-11-15T13:23:52;96604.59;;;14.87
19102;BMP280;9683;49.028;12.064;2022-11-15T13:26:19;96604.31;;;14.89
19102;BMP280;9683;49.028;12.064;2022-11-15T13:28:49;96600.59;;;14.90
19102;BMP280;9683;49.028;12.064;2022-11-15T13:31:27;96594.69;;;14.93
19102;BMP280;9683;49.028;12.064;2022-11-15T13:33:56;96604.88;;;15.01
19102;BMP280;9683;49.028;12.064;2022-11-15T13:36:26;96599.22;;;15.07
19102;BMP280;9683;49.028;12.064;2022-11-15T13:38:56;96601.66;;;15.14
19102;BMP280;9683;49.028;12.064;2022-11-15T13:41:24;96602.19;;;15.21
19102;BMP280;9683;49.028;12.064;2022-11-15T13:43:54;96597.91;;;15.30
19102;BMP280;9683;49.028;12.064;2022-11-15T13:46:22;96597.09;;;15.40
19102;BMP280;9683;49.028;12.064;2022-11-15T13:48:52;96599.75;;;15.45
19102;BMP280;9683;49.028;12.064;2022-11-15T13:51:22;96594.16;;;15.51
19102;BMP280;9683;49.028;12.064;2022-11-15T13:53:54;96592.28;;;15.57
19102;BMP280;9683;49.028;12.064;2022-11-15T13:56:22;96598.41;;;15.63
19102;BMP280;9683;49.028;12.064;2022-11-15T13:58:52;96585.56;;;15.65
19102;BMP280;9683;49.028;12.064;2022-11-15T14:01:21;96587.94;;;15.71
19102;BMP280;9683;49.028;12.064;2022-11-15T14:03:51;96578.00;;;15.77
19102;BMP280;9683;49.028;12.064;2022-11-15T14:06:20;96572.34;;;15.83
19102;BMP280;9683;49.028;12.064;2022-11-15T14:09:34;96575.25;;;15.92
19102;BMP280;9683;49.028;12.064;2022-11-15T14:12:20;96570.69;;;15.97
19102;BMP280;9683;49.028;12.064;2022-11-15T14:14:49;96572.25;;;16.03
19102;BMP280;9683;49.028;12.064;2022-11-15T14:17:19;96560.19;;;16.11
19102;BMP280;9683;49.028;12.064;2022-11-15T14:19:46;96557.44;;;16.16
19102;BMP280;9683;49.028;12.064;2022-11-15T14:22:19;96554.22;;;16.19
19102;BMP280;9683;49.028;12.064;2022-11-15T14:25:04;96555.53;;;16.22
19102;BMP280;9683;49.028;12.064;2022-11-15T14:27:31;96554.47;;;16.23
19102;BMP280;9683;49.028;12.064;2022-11-15T14:30:00;96552.28;;;16.30
19102;BMP280;9683;49.028;12.064;2022-11-15T14:32:28;96545.56;;;16.32
19102;BMP280;9683;49.028;12.064;2022-11-15T14:34:57;96549.06;;;16.33
19102;BMP280;9683;49.028;12.064;2022-11-15T14:37:25;96538.84;;;16.30
19102;BMP280;9683;49.028;12.064;2022-11-15T14:39:53;96535.09;;;16.31
19102;BMP280;9683;49.028;12.064;2022-11-15T14:42:21;96524.91;;;16.33
19102;BMP280;9683;49.028;12.064;2022-11-15T14:44:48;96524.34;;;16.31